createdAt,value
2022-08-08T00:01:08.809Z,102350.81
2022-08-08T00:03:47.516Z,102354.56
2022-08-08T00:06:28.348Z,102350.44
2022-08-08T00:09:12.135Z,102350.31
2022-08-08T00:11:46.719Z,102352.06
2022-08-08T00:14:48.154Z,102344.09
2022-08-08T00:18:02.360Z,102336.75
2022-08-08T00:20:37.376Z,102331.25
2022-08-08T00:23:14.710Z,102335.88
2022-08-08T00:25:51.350Z,102337.81
2022-08-08T00:28:35.788Z,102343.06
2022-08-08T00:32:20.244Z,102340.66
2022-08-08T00:34:31.852Z,102339.91
2022-08-08T00:37:45.140Z,102343.44
2022-08-08T00:41:13.011Z,102342.00
2022-08-08T00:43:41.660Z,102340.69
2022-08-08T00:46:57.397Z,102339.81
2022-08-08T00:50:04.469Z,102345.22
2022-08-08T00:52:48.798Z,102341.19
2022-08-08T00:55:59.335Z,102336.09
2022-08-08T00:59:18.732Z,102344.38
2022-08-08T01:03:58.584Z,102339.97
2022-08-08T01:06:08.260Z,102333.91
2022-08-08T01:09:35.693Z,102330.72
2022-08-08T01:12:26.848Z,102339.00
2022-08-08T01:15:44.154Z,102338.03
2022-08-08T01:18:53.017Z,102339.06
2022-08-08T01:22:10.128Z,102340.22
2022-08-08T01:24:54.389Z,102334.06
2022-08-08T01:28:00.055Z,102342.16
2022-08-08T01:32:02.667Z,102337.81
2022-08-08T01:34:53.549Z,102342.16
2022-08-08T01:38:00.288Z,102339.47
2022-08-08T01:40:38.789Z,102346.94
2022-08-08T01:43:16.634Z,102345.81
2022-08-08T01:45:56.697Z,102340.72
2022-08-08T01:48:43.856Z,102350.53
2022-08-08T01:52:42.787Z,102347.72
2022-08-08T01:55:45.244Z,102357.94
2022-08-08T01:58:03.971Z,102341.09
2022-08-08T02:00:25.333Z,102344.72
2022-08-08T02:03:49.489Z,102344.47
2022-08-08T02:06:32.571Z,102333.88
2022-08-08T02:09:16.247Z,102333.28
2022-08-08T02:12:00.062Z,102339.34
2022-08-08T02:14:49.872Z,102348.28
2022-08-08T02:17:35.277Z,102335.78
2022-08-08T02:21:01.251Z,102341.94
2022-08-08T02:23:16.646Z,102345.78
2022-08-08T02:25:53.150Z,102343.47
2022-08-08T02:28:41.396Z,102346.25
2022-08-08T02:31:59.051Z,102349.03
2022-08-08T02:34:33.006Z,102353.75
2022-08-08T02:37:52.726Z,102352.19
2022-08-08T02:40:08.645Z,102343.88
2022-08-08T02:44:44.952Z,102351.81
2022-08-08T02:46:21.888Z,102345.22
2022-08-08T02:49:27.697Z,102346.19
2022-08-08T02:52:35.031Z,102350.22
2022-08-08T02:55:25.763Z,102360.63
2022-08-08T02:59:25.787Z,102349.75
2022-08-08T03:02:30.365Z,102353.25
2022-08-08T03:05:45.442Z,102354.97
2022-08-08T03:08:57.019Z,102359.13
2022-08-08T03:12:14.021Z,102350.91
2022-08-08T03:16:01.581Z,102361.47
2022-08-08T03:17:52.086Z,102363.59
2022-08-08T03:20:47.031Z,102369.00
2022-08-08T03:23:21.943Z,102366.41
2022-08-08T03:25:52.143Z,102367.63
2022-08-08T03:28:28.684Z,102365.72
2022-08-08T03:31:07.862Z,102367.28
2022-08-08T03:33:58.221Z,102370.66
2022-08-08T03:36:30.640Z,102367.56
2022-08-08T03:39:14.839Z,102358.34
2022-08-08T03:42:27.145Z,102366.94
2022-08-08T03:44:35.246Z,102366.75
2022-08-08T03:47:14.194Z,102370.09
2022-08-08T03:50:00.336Z,102375.41
2022-08-08T03:52:33.701Z,102377.72
2022-08-08T03:55:55.178Z,102379.38
2022-08-08T03:58:34.251Z,102373.88
2022-08-08T04:01:02.566Z,102374.47
2022-08-08T04:03:58.102Z,102373.88
2022-08-08T04:06:29.734Z,102385.53
2022-08-08T04:08:58.339Z,102384.50
2022-08-08T04:11:58.865Z,102396.72
2022-08-08T04:14:35.586Z,102396.06
2022-08-08T04:17:07.002Z,102389.47
2022-08-08T04:19:43.635Z,102391.34
2022-08-08T04:22:11.732Z,102391.25
2022-08-08T04:24:44.504Z,102390.19
2022-08-08T04:28:03.137Z,102390.94
2022-08-08T04:30:17.489Z,102390.94
2022-08-08T04:32:49.859Z,102388.84
2022-08-08T04:35:18.345Z,102393.09
2022-08-08T04:37:50.374Z,102390.56
2022-08-08T04:40:19.425Z,102395.31
2022-08-08T04:42:56.816Z,102398.19
2022-08-08T04:45:26.561Z,102388.47
2022-08-08T04:47:54.977Z,102384.81
2022-08-08T04:50:23.817Z,102384.13
2022-08-08T04:53:00.830Z,102380.16
2022-08-08T04:55:47.653Z,102388.69
2022-08-08T04:58:22.926Z,102388.41
2022-08-08T05:00:51.788Z,102387.16
2022-08-08T05:04:09.153Z,102390.13
2022-08-08T05:06:13.249Z,102394.75
2022-08-08T05:08:43.059Z,102397.47
2022-08-08T05:11:22.714Z,102396.88
2022-08-08T05:13:57.975Z,102405.16
2022-08-08T05:16:55.527Z,102409.16
2022-08-08T05:20:08.909Z,102393.97
2022-08-08T05:22:07.074Z,102400.44
2022-08-08T05:24:37.445Z,102405.97
2022-08-08T05:27:06.195Z,102411.97
2022-08-08T05:29:36.990Z,102412.88
2022-08-08T05:32:07.514Z,102414.38
2022-08-08T05:34:37.899Z,102410.59
2022-08-08T05:37:11.875Z,102403.53
2022-08-08T05:39:48.135Z,102409.84
2022-08-08T05:42:16.432Z,102415.47
2022-08-08T05:44:51.573Z,102416.34
2022-08-08T05:47:23.423Z,102414.94
2022-08-08T05:49:53.871Z,102413.69
2022-08-08T05:52:31.635Z,102408.06
2022-08-08T05:55:09.002Z,102418.00
2022-08-08T05:58:04.841Z,102420.88
2022-08-08T06:00:33.935Z,102426.03
2022-08-08T06:03:13.376Z,102425.03
2022-08-08T06:05:53.229Z,102426.78
2022-08-08T06:08:33.175Z,102431.69
2022-08-08T06:11:02.245Z,102432.56
2022-08-08T06:13:36.347Z,102433.59
2022-08-08T06:16:18.798Z,102427.84
2022-08-08T06:18:50.204Z,102434.00
2022-08-08T06:21:33.060Z,102428.94
2022-08-08T06:24:13.764Z,102438.47
2022-08-08T06:26:57.861Z,102428.50
2022-08-08T06:29:56.863Z,102433.91
2022-08-08T06:32:31.331Z,102438.00
2022-08-08T06:36:04.944Z,102438.38
2022-08-08T06:37:55.787Z,102446.06
2022-08-08T06:40:27.004Z,102449.31
2022-08-08T06:43:01.866Z,102451.16
2022-08-08T06:45:33.772Z,102451.66
2022-08-08T06:48:04.470Z,102456.22
2022-08-08T06:50:38.589Z,102458.59
2022-08-08T06:53:17.557Z,102454.13
2022-08-08T06:56:02.615Z,102443.41
2022-08-08T06:58:33.880Z,102445.69
2022-08-08T07:01:11.704Z,102450.06
2022-08-08T07:04:37.357Z,102451.59
2022-08-08T07:06:55.720Z,102452.19
2022-08-08T07:09:45.431Z,102447.28
2022-08-08T07:12:24.241Z,102450.63
2022-08-08T07:15:04.650Z,102445.13
2022-08-08T07:18:00.624Z,102444.94
2022-08-08T07:20:30.876Z,102458.47
2022-08-08T07:23:03.166Z,102444.94
2022-08-08T07:25:35.201Z,102446.34
2022-08-08T07:28:18.573Z,102432.59
2022-08-08T07:30:47.935Z,102441.44
2022-08-08T07:33:17.564Z,102443.16
2022-08-08T07:35:48.631Z,102444.91
2022-08-08T07:38:24.786Z,102441.34
2022-08-08T07:40:59.045Z,102448.38
2022-08-08T07:43:36.774Z,102450.91
2022-08-08T07:46:23.100Z,102454.91
2022-08-08T07:48:52.253Z,102460.47
2022-08-08T07:51:24.397Z,102460.50
2022-08-08T07:54:26.407Z,102455.34
2022-08-08T07:57:09.006Z,102462.09
2022-08-08T07:59:51.595Z,102464.63
2022-08-08T08:02:36.850Z,102459.94
2022-08-08T08:05:19.082Z,102467.84
2022-08-08T08:07:53.288Z,102470.41
2022-08-08T08:10:30.242Z,102468.13
2022-08-08T08:13:25.957Z,102470.31
2022-08-08T08:16:11.444Z,102466.06
2022-08-08T08:18:55.674Z,102478.50
2022-08-08T08:21:44.800Z,102467.09
2022-08-08T08:24:18.495Z,102472.72
2022-08-08T08:26:52.725Z,102473.09
2022-08-08T08:29:24.231Z,102476.59
2022-08-08T08:31:57.523Z,102473.00
2022-08-08T08:34:32.366Z,102471.69
2022-08-08T08:37:03.327Z,102476.44
2022-08-08T08:39:59.322Z,102476.38
2022-08-08T08:42:31.850Z,102472.19
2022-08-08T08:45:22.048Z,102468.69
2022-08-08T08:47:54.518Z,102473.09
2022-08-08T08:50:32.861Z,102464.97
2022-08-08T08:53:54.890Z,102471.09
2022-08-08T08:56:02.061Z,102474.03
2022-08-08T08:58:33.436Z,102476.97
2022-08-08T09:01:08.642Z,102470.66
2022-08-08T09:03:46.900Z,102478.13
2022-08-08T09:06:27.138Z,102480.50
2022-08-08T09:09:07.313Z,102481.78
2022-08-08T09:12:01.476Z,102481.19
2022-08-08T09:14:34.327Z,102478.81
2022-08-08T09:17:11.589Z,102473.63
2022-08-08T09:22:31.450Z,102477.88
2022-08-08T09:24:59.331Z,102475.66
2022-08-08T09:27:56.740Z,102482.59
2022-08-08T09:30:22.168Z,102485.38
2022-08-08T09:33:12.295Z,102479.97
2022-08-08T09:35:49.572Z,102479.31
2022-08-08T09:38:31.971Z,102485.75
2022-08-08T09:41:06.500Z,102480.63
2022-08-08T09:44:05.257Z,102482.75
2022-08-08T09:46:36.253Z,102478.94
2022-08-08T09:49:41.491Z,102486.97
2022-08-08T09:52:07.076Z,102489.06
2022-08-08T09:54:45.642Z,102475.41
2022-08-08T09:57:19.713Z,102480.13
2022-08-08T10:02:47.500Z,102478.88
2022-08-08T10:05:23.077Z,102480.25
2022-08-08T10:08:00.035Z,102490.72
2022-08-08T10:10:30.120Z,102479.50
2022-08-08T10:13:06.052Z,102479.72
2022-08-08T10:15:59.008Z,102478.66
2022-08-08T10:18:32.849Z,102476.31
2022-08-08T10:21:22.423Z,102475.81
2022-08-08T10:23:58.643Z,102481.59
2022-08-08T10:26:52.311Z,102479.66
2022-08-08T10:29:25.129Z,102485.44
2022-08-08T10:32:17.124Z,102481.06
2022-08-08T10:34:57.024Z,102478.78
2022-08-08T10:37:30.222Z,102477.91
2022-08-08T10:40:02.436Z,102477.69
2022-08-08T10:42:37.531Z,102478.41
2022-08-08T10:45:09.229Z,102480.78
2022-08-08T10:47:43.948Z,102477.91
2022-08-08T10:50:16.425Z,102487.03
2022-08-08T10:52:44.868Z,102478.25
2022-08-08T10:55:41.017Z,102478.09
2022-08-08T10:58:07.467Z,102477.47
2022-08-08T11:00:48.450Z,102479.56
2022-08-08T11:03:37.108Z,102474.84
2022-08-08T11:06:17.547Z,102476.63
2022-08-08T11:08:53.298Z,102473.72
2022-08-08T11:11:32.313Z,102471.63
2022-08-08T11:14:12.451Z,102475.75
2022-08-08T11:16:46.680Z,102471.19
2022-08-08T11:19:18.060Z,102473.88
2022-08-08T11:21:55.377Z,102476.72
2022-08-08T11:24:27.476Z,102481.28
2022-08-08T11:27:03.032Z,102484.22
2022-08-08T11:29:50.855Z,102480.47
2022-08-08T11:32:31.415Z,102481.91
2022-08-08T11:35:23.158Z,102472.09
2022-08-08T11:38:38.905Z,102472.25
2022-08-08T11:40:44.783Z,102469.69
2022-08-08T11:43:18.158Z,102471.13
2022-08-08T11:46:09.149Z,102469.34
2022-08-08T11:48:35.143Z,102463.84
2022-08-08T11:51:30.948Z,102469.06
2022-08-08T11:54:01.172Z,102474.91
2022-08-08T11:56:34.459Z,102474.94
2022-08-08T11:59:10.000Z,102480.69
2022-08-08T12:01:38.603Z,102479.63
2022-08-08T12:04:09.181Z,102468.44
2022-08-08T12:06:42.964Z,102479.16
2022-08-08T12:09:17.151Z,102475.56
2022-08-08T12:11:49.420Z,102478.06
2022-08-08T12:14:24.065Z,102470.41
2022-08-08T12:16:57.829Z,102473.84
2022-08-08T12:19:37.869Z,102467.97
2022-08-08T12:22:20.912Z,102466.56
2022-08-08T12:24:53.935Z,102465.00
2022-08-08T12:27:26.615Z,102462.09
2022-08-08T12:30:02.196Z,102460.66
2022-08-08T12:32:31.126Z,102460.41
2022-08-08T12:35:13.623Z,102471.34
2022-08-08T12:38:02.113Z,102463.41
2022-08-08T12:40:54.038Z,102459.78
2022-08-08T12:43:32.950Z,102467.22
2022-08-08T12:46:19.324Z,102457.22
2022-08-08T12:49:21.943Z,102458.94
2022-08-08T12:51:58.757Z,102450.56
2022-08-08T12:54:33.421Z,102443.66
2022-08-08T12:57:17.147Z,102446.75
2022-08-08T13:00:03.626Z,102446.28
2022-08-08T13:02:36.243Z,102447.88
2022-08-08T13:05:15.542Z,102437.88
2022-08-08T13:08:03.785Z,102446.59
2022-08-08T13:10:39.807Z,102448.06
2022-08-08T13:13:35.318Z,102439.41
2022-08-08T13:16:19.335Z,102441.34
2022-08-08T13:18:58.313Z,102440.94
2022-08-08T13:21:48.921Z,102441.81
2022-08-08T13:24:38.510Z,102441.38
2022-08-08T13:27:11.857Z,102436.69
2022-08-08T13:29:50.744Z,102433.34
2022-08-08T13:32:26.880Z,102444.91
2022-08-08T13:34:56.823Z,102444.84
2022-08-08T13:37:28.045Z,102447.50
2022-08-08T13:40:27.115Z,102448.59
2022-08-08T13:42:58.445Z,102443.84
2022-08-08T13:45:26.681Z,102440.81
2022-08-08T13:47:59.041Z,102445.94
2022-08-08T13:50:39.620Z,102443.84
2022-08-08T13:53:26.401Z,102446.88
2022-08-08T13:56:01.363Z,102440.81
2022-08-08T13:58:31.433Z,102445.91
2022-08-08T14:01:13.705Z,102450.50
2022-08-08T14:03:56.797Z,102448.00
2022-08-08T14:06:33.170Z,102442.97
2022-08-08T14:09:24.906Z,102447.28
2022-08-08T14:11:50.686Z,102447.31
2022-08-08T14:14:21.157Z,102451.69
2022-08-08T14:16:55.415Z,102446.66
2022-08-08T14:19:57.888Z,102448.91
2022-08-08T14:22:25.567Z,102447.16
2022-08-08T14:24:55.821Z,102456.72
2022-08-08T14:27:29.722Z,102456.84
2022-08-08T14:30:01.826Z,102454.72
2022-08-08T14:32:31.683Z,102452.56
2022-08-08T14:35:04.897Z,102455.31
2022-08-08T14:37:43.144Z,102457.63
2022-08-08T14:40:29.710Z,102455.75
2022-08-08T14:42:59.747Z,102454.34
2022-08-08T14:45:46.722Z,102452.19
2022-08-08T14:48:34.244Z,102461.06
2022-08-08T14:51:07.969Z,102461.66
2022-08-08T14:53:55.060Z,102453.31
2022-08-08T14:56:25.617Z,102450.75
2022-08-08T14:58:54.600Z,102451.47
2022-08-08T15:01:37.596Z,102448.00
2022-08-08T15:04:11.830Z,102441.91
2022-08-08T15:06:42.506Z,102447.19
2022-08-08T15:09:12.436Z,102439.41
2022-08-08T15:11:46.297Z,102440.00
2022-08-08T15:14:25.114Z,102443.16
2022-08-08T15:16:57.058Z,102440.78
2022-08-08T15:19:28.126Z,102441.06
2022-08-08T15:21:57.968Z,102444.38
2022-08-08T15:24:31.842Z,102445.69
2022-08-08T15:27:12.137Z,102437.06
2022-08-08T15:29:48.593Z,102442.94
2022-08-08T15:32:20.155Z,102445.66
2022-08-08T15:34:50.497Z,102438.69
2022-08-08T15:37:19.181Z,102445.53
2022-08-08T15:39:47.954Z,102447.13
2022-08-08T15:42:31.311Z,102451.44
2022-08-08T15:45:00.482Z,102442.94
2022-08-08T15:47:31.407Z,102449.44
2022-08-08T15:50:00.545Z,102449.00
2022-08-08T15:52:30.161Z,102444.28
2022-08-08T15:55:01.219Z,102441.09
2022-08-08T15:57:35.750Z,102441.09
2022-08-08T16:00:26.844Z,102444.72
2022-08-08T16:02:59.314Z,102446.44
2022-08-08T16:05:35.507Z,102439.25
2022-08-08T16:08:20.038Z,102447.72
2022-08-08T16:13:05.264Z,102448.06
2022-08-08T16:13:45.014Z,102446.59
2022-08-08T16:16:17.533Z,102451.47
2022-08-08T16:18:53.482Z,102446.34
2022-08-08T16:21:28.114Z,102443.09
2022-08-08T16:23:58.433Z,102434.59
2022-08-08T16:26:33.661Z,102432.00
2022-08-08T16:29:08.976Z,102433.16
2022-08-08T16:31:40.940Z,102432.31
2022-08-08T16:34:11.606Z,102431.28
2022-08-08T16:36:40.712Z,102434.56
2022-08-08T16:39:28.487Z,102438.09
2022-08-08T16:42:00.818Z,102432.66
2022-08-08T16:44:33.880Z,102433.78
2022-08-08T16:47:16.698Z,102433.94
2022-08-08T16:49:47.796Z,102445.84
2022-08-08T16:55:01.540Z,102436.13
2022-08-08T16:55:52.410Z,102437.72
2022-08-08T16:58:15.684Z,102437.97
2022-08-08T17:00:48.460Z,102438.13
2022-08-08T17:03:18.123Z,102444.88
2022-08-08T17:05:56.528Z,102439.88
2022-08-08T17:08:24.534Z,102446.63
2022-08-08T17:10:58.848Z,102442.75
2022-08-08T17:13:49.701Z,102446.63
2022-08-08T17:16:24.248Z,102453.66
2022-08-08T17:18:52.519Z,102452.91
2022-08-08T17:21:21.918Z,102460.91
2022-08-08T17:24:00.312Z,102451.78
2022-08-08T17:26:30.993Z,102461.22
2022-08-08T17:29:04.502Z,102453.50
2022-08-08T17:31:44.388Z,102466.84
2022-08-08T17:34:49.205Z,102463.63
2022-08-08T17:37:09.190Z,102467.59
2022-08-08T17:40:03.166Z,102473.41
2022-08-08T17:42:25.518Z,102475.84
2022-08-08T17:44:53.417Z,102471.84
2022-08-08T17:47:37.802Z,102475.13
2022-08-08T17:50:09.898Z,102468.78
2022-08-08T17:52:43.096Z,102467.63
2022-08-08T17:56:03.880Z,102472.06
2022-08-08T17:58:01.854Z,102476.22
2022-08-08T18:00:31.392Z,102477.38
2022-08-08T18:03:08.305Z,102478.50
2022-08-08T18:05:48.755Z,102479.94
2022-08-08T18:08:25.210Z,102478.91
2022-08-08T18:11:14.682Z,102488.78
2022-08-08T18:13:45.290Z,102495.50
2022-08-08T18:16:20.841Z,102489.31
2022-08-08T18:18:53.701Z,102495.31
2022-08-08T18:21:35.230Z,102487.34
2022-08-08T18:24:18.847Z,102492.66
2022-08-08T18:26:54.422Z,102499.81
2022-08-08T18:29:30.031Z,102502.03
2022-08-08T18:32:04.131Z,102502.56
2022-08-08T18:34:33.957Z,102511.28
2022-08-08T18:37:04.972Z,102509.81
2022-08-08T18:39:41.014Z,102510.09
2022-08-08T18:42:14.312Z,102514.25
2022-08-08T18:44:55.209Z,102510.53
2022-08-08T18:47:24.415Z,102521.97
2022-08-08T18:49:58.356Z,102517.53
2022-08-08T18:52:28.292Z,102514.13
2022-08-08T18:55:10.303Z,102519.03
2022-08-08T18:57:45.057Z,102517.25
2022-08-08T19:00:20.183Z,102526.41
2022-08-08T19:03:06.023Z,102532.72
2022-08-08T19:05:44.216Z,102526.28
2022-08-08T19:08:25.644Z,102527.09
2022-08-08T19:10:59.455Z,102534.50
2022-08-08T19:13:38.243Z,102547.66
2022-08-08T19:16:18.979Z,102543.31
2022-08-08T19:18:54.460Z,102544.09
2022-08-08T19:21:30.099Z,102542.75
2022-08-08T19:23:59.330Z,102545.25
2022-08-08T19:26:31.167Z,102555.16
2022-08-08T19:28:59.868Z,102551.22
2022-08-08T19:31:31.676Z,102556.91
2022-08-08T19:34:29.789Z,102560.13
2022-08-08T19:36:55.338Z,102548.75
2022-08-08T19:39:26.699Z,102559.88
2022-08-08T19:42:05.029Z,102552.47
2022-08-08T19:44:43.288Z,102554.69
2022-08-08T19:47:14.750Z,102559.38
2022-08-08T19:50:00.631Z,102558.13
2022-08-08T19:52:35.125Z,102551.13
2022-08-08T19:55:09.258Z,102562.06
2022-08-08T19:57:39.007Z,102558.38
2022-08-08T20:00:11.540Z,102565.66
2022-08-08T20:02:57.808Z,102570.72
2022-08-08T20:06:14.361Z,102568.00
2022-08-08T20:08:29.376Z,102568.34
2022-08-08T20:11:00.702Z,102570.19
2022-08-08T20:14:13.770Z,102570.78
2022-08-08T20:16:19.147Z,102583.19
2022-08-08T20:18:52.777Z,102582.97
2022-08-08T20:21:22.974Z,102580.94
2022-08-08T20:23:57.467Z,102586.13
2022-08-08T20:26:33.534Z,102590.91
2022-08-08T20:29:04.101Z,102600.91
2022-08-08T20:32:07.307Z,102599.19
2022-08-08T20:34:30.484Z,102600.50
2022-08-08T20:37:00.604Z,102606.28
2022-08-08T20:39:39.320Z,102593.41
2022-08-08T20:42:19.090Z,102591.91
2022-08-08T20:44:50.026Z,102602.25
2022-08-08T20:47:23.555Z,102599.88
2022-08-08T20:49:55.810Z,102604.22
2022-08-08T20:52:27.613Z,102603.44
2022-08-08T20:54:56.049Z,102604.91
2022-08-08T20:57:26.915Z,102604.38
2022-08-08T20:59:56.752Z,102607.19
2022-08-08T21:02:25.625Z,102602.09
2022-08-08T21:04:56.245Z,102604.91
2022-08-08T21:07:31.262Z,102601.91
2022-08-08T21:10:14.056Z,102600.75
2022-08-08T21:12:45.936Z,102596.41
2022-08-08T21:15:16.764Z,102594.88
2022-08-08T21:18:04.134Z,102604.34
2022-08-08T21:20:34.123Z,102600.88
2022-08-08T21:23:03.342Z,102595.25
2022-08-08T21:25:36.461Z,102600.66
2022-08-08T21:28:15.017Z,102601.41
2022-08-08T21:30:51.902Z,102617.28
2022-08-08T21:33:21.228Z,102608.94
2022-08-08T21:36:18.728Z,102614.66
2022-08-08T21:38:37.354Z,102609.47
2022-08-08T21:41:05.328Z,102609.72
2022-08-08T21:43:35.613Z,102611.13
2022-08-08T21:48:06.185Z,102609.38
2022-08-08T21:48:55.114Z,102617.50
2022-08-08T21:54:17.925Z,102613.28
2022-08-08T21:54:22.740Z,102622.53
2022-08-08T21:57:02.730Z,102614.88
2022-08-08T22:00:02.717Z,102626.56
2022-08-08T22:02:23.542Z,102619.66
2022-08-08T22:04:53.418Z,102622.88
2022-08-08T22:07:34.499Z,102625.59
2022-08-08T22:10:09.618Z,102626.44
2022-08-08T22:12:38.986Z,102628.06
2022-08-08T22:15:08.569Z,102634.75
2022-08-08T22:17:45.742Z,102638.66
2022-08-08T22:20:19.017Z,102642.34
2022-08-08T22:22:52.708Z,102643.41
2022-08-08T22:25:25.269Z,102644.47
2022-08-08T22:28:02.875Z,102645.88
2022-08-08T22:30:33.664Z,102650.06
2022-08-08T22:33:08.997Z,102639.69
2022-08-08T22:36:05.545Z,102643.78
2022-08-08T22:38:47.950Z,102646.72
2022-08-08T22:41:21.770Z,102636.00
2022-08-08T22:44:02.869Z,102644.13
2022-08-08T22:46:34.537Z,102639.88
2022-08-08T22:49:09.441Z,102643.09
2022-08-08T22:51:42.474Z,102651.31
2022-08-08T22:54:30.756Z,102654.31
2022-08-08T22:57:11.544Z,102645.72
2022-08-08T22:59:52.724Z,102646.88
2022-08-08T23:02:29.118Z,102648.31
2022-08-08T23:05:04.784Z,102654.69
2022-08-08T23:07:49.388Z,102648.81
2022-08-08T23:10:25.563Z,102657.22
2022-08-08T23:12:56.138Z,102657.72
2022-08-08T23:16:42.100Z,102657.81
2022-08-08T23:18:13.128Z,102655.34
2022-08-08T23:20:44.149Z,102652.91
2022-08-08T23:23:12.995Z,102653.25
2022-08-08T23:25:47.844Z,102653.78
2022-08-08T23:28:18.051Z,102655.53
2022-08-08T23:30:48.576Z,102653.91
2022-08-08T23:33:20.850Z,102659.09
2022-08-08T23:36:08.465Z,102663.06
2022-08-08T23:38:43.934Z,102667.03
2022-08-08T23:41:17.363Z,102670.03
2022-08-08T23:43:54.331Z,102674.94
2022-08-08T23:49:03.737Z,102674.50
2022-08-08T23:49:18.102Z,102670.81
2022-08-08T23:52:04.318Z,102672.47
2022-08-08T23:54:41.666Z,102669.19
2022-08-08T23:57:27.754Z,102668.03
